Terminal Aerodrome Forecast
Issued by NWS

Current Version | Previous Version | Graphics & Text | Print | Product List | Glossary On
Versions: 1 2 3 4 5 6 7 8 9 10 11 12 13 14 15 16 17 18 19 20 21 22 23 24 25 26 27 28 29 30
000
FTUS41 KPBZ 271500 AAB
TAFMGW
TAF AMD
KMGW 271516Z 2715/2812 00000KT 4SM BR BKN015
      TEMPO 2715/2717 1 1/2SM -SN BKN008
     FM272000 30010KT 5SM -SHSN OVC035=

USA.gov is the U.S. government's official web portal to all federal, state and local government web resources and services.